createdAt,value
2019-05-25T00:01:45.947Z,100933.16
2019-05-25T00:04:14.656Z,100936.56
2019-05-25T00:06:43.321Z,100939.61
2019-05-25T00:09:12.093Z,100944.39
2019-05-25T00:11:40.763Z,100936.88
2019-05-25T00:14:09.518Z,100943.69
2019-05-25T00:16:38.182Z,100946.58
2019-05-25T00:19:06.889Z,100938.00
2019-05-25T00:21:35.598Z,100937.70
2019-05-25T00:24:12.395Z,100942.98
2019-05-25T00:26:34.852Z,100945.72
2019-05-25T00:29:03.544Z,100942.97
2019-05-25T00:31:37.558Z,100945.87
2019-05-25T00:34:06.321Z,100941.47
2019-05-25T00:36:35.456Z,100935.28
2019-05-25T00:39:05.522Z,100936.86
2019-05-25T00:41:34.258Z,100941.80
2019-05-25T00:44:03.126Z,100939.23
2019-05-25T00:46:31.798Z,100943.00
2019-05-25T00:49:01.085Z,100946.92
2019-05-25T00:51:29.769Z,100942.47
2019-05-25T00:53:58.531Z,100948.60
2019-05-25T00:56:27.214Z,100951.50
2019-05-25T00:58:55.972Z,100959.00
2019-05-25T01:01:24.713Z,100959.00
2019-05-25T01:03:53.483Z,100957.78
2019-05-25T01:06:22.208Z,100961.66
2019-05-25T01:08:50.921Z,100963.73
2019-05-25T01:11:19.651Z,100963.72
2019-05-25T01:13:48.331Z,100958.40
2019-05-25T01:16:17.019Z,100957.70
2019-05-25T01:18:45.694Z,100966.73
2019-05-25T01:21:14.388Z,100965.91
2019-05-25T01:23:43.050Z,100964.15
2019-05-25T01:26:11.800Z,100957.50
2019-05-25T01:28:40.531Z,100963.84
2019-05-25T01:31:09.241Z,100958.84
2019-05-25T01:33:37.914Z,100962.25
2019-05-25T01:36:06.627Z,100961.94
2019-05-25T01:38:35.374Z,100963.61
2019-05-25T01:41:04.321Z,100967.68
2019-05-25T01:43:33.007Z,100969.58
2019-05-25T01:46:01.702Z,100968.20
2019-05-25T01:48:30.492Z,100964.93
2019-05-25T01:50:59.189Z,100970.38
2019-05-25T01:53:27.871Z,100963.72
2019-05-25T01:55:56.635Z,100962.18
2019-05-25T01:58:25.295Z,100965.27
2019-05-25T02:00:54.084Z,100969.00
2019-05-25T02:03:22.819Z,100967.77
2019-05-25T02:05:51.526Z,100961.47
2019-05-25T02:08:20.186Z,100957.73
2019-05-25T02:10:48.872Z,100966.02
2019-05-25T02:13:17.593Z,100954.90
2019-05-25T02:15:46.773Z,100958.75
2019-05-25T02:18:15.443Z,100953.41
2019-05-25T02:20:44.125Z,100957.68
2019-05-25T02:23:12.915Z,100955.56
2019-05-25T02:25:41.607Z,100959.05
2019-05-25T02:28:10.282Z,100956.84
2019-05-25T02:30:39.005Z,100953.77
2019-05-25T02:33:07.727Z,100958.20
2019-05-25T02:35:36.429Z,100959.71
2019-05-25T02:38:05.090Z,100961.26
2019-05-25T02:40:33.875Z,100957.40
2019-05-25T02:43:02.539Z,100962.83
2019-05-25T02:45:31.229Z,100961.80
2019-05-25T02:47:59.898Z,100964.19
2019-05-25T02:50:28.669Z,100966.04
2019-05-25T02:52:57.349Z,100962.63
2019-05-25T02:55:34.417Z,100964.83
2019-05-25T02:57:56.561Z,100970.95
2019-05-25T03:00:34.932Z,100968.92
2019-05-25T03:03:07.596Z,100970.62
2019-05-25T03:05:41.658Z,100964.88
2019-05-25T03:08:10.404Z,100970.53
2019-05-25T03:10:40.001Z,100969.53
2019-05-25T03:13:08.667Z,100973.77
2019-05-25T03:15:37.562Z,100972.08
2019-05-25T03:18:06.226Z,100978.59
2019-05-25T03:20:34.925Z,100977.17
2019-05-25T03:23:04.047Z,100982.98
2019-05-25T03:25:48.301Z,100979.59
2019-05-25T03:28:03.148Z,100984.84
2019-05-25T03:30:34.443Z,100983.14
2019-05-25T03:33:03.190Z,100988.59
2019-05-25T03:35:31.960Z,100981.02
2019-05-25T03:38:00.664Z,100985.47
2019-05-25T03:40:29.377Z,100992.28
2019-05-25T03:42:58.048Z,100988.26
2019-05-25T03:45:26.794Z,100986.05
2019-05-25T03:47:55.577Z,100991.59
2019-05-25T03:50:24.244Z,100993.44
2019-05-25T03:52:52.946Z,100991.08
2019-05-25T03:55:21.823Z,100992.08
2019-05-25T03:57:50.597Z,100992.59
2019-05-25T04:00:25.253Z,100995.86
2019-05-25T04:02:53.987Z,100992.28
2019-05-25T04:05:24.359Z,100991.59
2019-05-25T04:07:53.176Z,100990.58
2019-05-25T04:10:21.942Z,100994.13
2019-05-25T04:12:50.643Z,100994.41
2019-05-25T04:15:19.446Z,100998.89
2019-05-25T04:17:48.161Z,100995.49
2019-05-25T04:20:17.031Z,100999.80
2019-05-25T04:22:45.801Z,100996.40
2019-05-25T04:25:14.673Z,101003.37
2019-05-25T04:27:43.455Z,101001.64
2019-05-25T04:30:12.622Z,101002.19
2019-05-25T04:32:41.386Z,101009.19
2019-05-25T04:35:10.166Z,101007.84
2019-05-25T04:37:38.930Z,101007.66
2019-05-25T04:40:08.546Z,101007.88
2019-05-25T04:42:37.328Z,101005.12
2019-05-25T04:45:08.114Z,101007.18
2019-05-25T04:47:36.941Z,101008.75
2019-05-25T04:50:10.123Z,101010.58
2019-05-25T04:52:41.328Z,101008.90
2019-05-25T04:55:09.585Z,101014.33
2019-05-25T04:57:38.302Z,101019.30
2019-05-25T05:00:07.770Z,101018.24
2019-05-25T05:02:36.500Z,101021.64
2019-05-25T05:05:07.178Z,101020.60
2019-05-25T05:07:35.865Z,101024.91
2019-05-25T05:10:08.851Z,101021.30
2019-05-25T05:12:37.653Z,101024.70
2019-05-25T05:15:06.822Z,101024.67
2019-05-25T05:17:35.613Z,101031.03
2019-05-25T05:20:08.660Z,101036.61
2019-05-25T05:22:37.457Z,101037.21
2019-05-25T05:25:07.137Z,101038.23
2019-05-25T05:27:36.025Z,101040.23
2019-05-25T05:30:06.817Z,101033.63
2019-05-25T05:32:35.575Z,101035.88
2019-05-25T05:35:08.707Z,101040.66
2019-05-25T05:37:37.670Z,101041.73
2019-05-25T05:40:08.510Z,101039.91
2019-05-25T05:42:39.653Z,101043.97
2019-05-25T05:45:08.855Z,101046.27
2019-05-25T05:47:37.656Z,101047.98
2019-05-25T05:50:08.217Z,101044.54
2019-05-25T05:52:38.871Z,101051.05
2019-05-25T05:55:10.393Z,101049.41
2019-05-25T05:57:39.093Z,101052.82
2019-05-25T06:00:10.571Z,101056.11
2019-05-25T06:02:39.315Z,101052.19
2019-05-25T06:05:08.197Z,101057.16
2019-05-25T06:07:36.964Z,101055.36
2019-05-25T06:10:07.935Z,101061.23
2019-05-25T06:12:36.627Z,101063.98
2019-05-25T06:15:07.917Z,101053.94
2019-05-25T06:17:36.589Z,101064.36
2019-05-25T06:20:07.270Z,101067.31
2019-05-25T06:22:36.108Z,101057.77
2019-05-25T06:25:06.910Z,101065.18
2019-05-25T06:27:35.579Z,101068.06
2019-05-25T06:30:06.409Z,101071.16
2019-05-25T06:32:35.109Z,101069.66
2019-05-25T06:35:05.756Z,101073.59
2019-05-25T06:37:34.465Z,101071.92
2019-05-25T06:40:04.869Z,101067.47
2019-05-25T06:42:33.557Z,101071.25
2019-05-25T06:45:02.370Z,101068.83
2019-05-25T06:47:31.117Z,101079.55
2019-05-25T06:49:59.823Z,101081.97
2019-05-25T06:52:28.524Z,101080.92
2019-05-25T06:54:57.215Z,101079.39
2019-05-25T06:57:25.874Z,101085.69
2019-05-25T06:59:54.654Z,101085.67
2019-05-25T07:02:23.451Z,101083.47
2019-05-25T07:04:52.174Z,101080.73
2019-05-25T07:07:20.934Z,101089.17
2019-05-25T07:09:49.703Z,101085.61
2019-05-25T07:12:18.386Z,101077.48
2019-05-25T07:14:47.175Z,101080.28
2019-05-25T07:17:16.167Z,101082.28
2019-05-25T07:19:44.945Z,101082.42
2019-05-25T07:22:13.665Z,101078.85
2019-05-25T07:24:42.510Z,101083.84
2019-05-25T07:27:11.468Z,101083.12
2019-05-25T07:29:40.173Z,101083.63
2019-05-25T07:32:08.911Z,101084.85
2019-05-25T07:34:37.641Z,101082.12
2019-05-25T07:37:06.327Z,101080.92
2019-05-25T07:39:35.094Z,101084.03
2019-05-25T07:42:03.791Z,101087.97
2019-05-25T07:44:32.860Z,101085.28
2019-05-25T07:47:01.670Z,101086.29
2019-05-25T07:49:30.458Z,101093.48
2019-05-25T07:52:02.488Z,101098.07
2019-05-25T07:54:32.132Z,101100.47
2019-05-25T07:57:22.237Z,101105.58
2019-05-25T07:59:51.055Z,101100.80
2019-05-25T08:02:19.709Z,101112.20
2019-05-25T08:04:48.410Z,101110.83
2019-05-25T08:07:17.071Z,101111.20
2019-05-25T08:09:45.854Z,101111.20
2019-05-25T08:12:14.514Z,101111.05
2019-05-25T08:14:45.154Z,101110.68
2019-05-25T08:17:14.950Z,101112.05
2019-05-25T08:19:43.717Z,101114.11
2019-05-25T08:22:12.459Z,101118.26
2019-05-25T08:24:41.125Z,101121.00
2019-05-25T08:27:09.826Z,101127.20
2019-05-25T08:29:38.556Z,101127.88
2019-05-25T08:32:07.267Z,101127.03
2019-05-25T08:34:36.060Z,101126.19
2019-05-25T08:37:04.791Z,101135.06
2019-05-25T08:39:33.576Z,101132.37
2019-05-25T08:42:02.345Z,101137.16
2019-05-25T08:44:31.029Z,101137.84
2019-05-25T08:46:59.719Z,101138.20
2019-05-25T08:49:28.429Z,101138.52
2019-05-25T08:51:57.156Z,101143.66
2019-05-25T08:54:25.944Z,101143.14
2019-05-25T08:56:54.671Z,101146.39
2019-05-25T08:59:23.443Z,101144.80
2019-05-25T09:01:52.209Z,101146.02
2019-05-25T09:04:21.593Z,101148.36
2019-05-25T09:06:50.405Z,101147.66
2019-05-25T09:09:19.145Z,101160.31
2019-05-25T09:11:47.852Z,101160.45
2019-05-25T09:14:16.627Z,101164.89
2019-05-25T09:16:45.294Z,101163.26
2019-05-25T09:19:14.123Z,101168.73
2019-05-25T09:21:42.892Z,101169.89
2019-05-25T09:24:11.628Z,101171.30
2019-05-25T09:26:40.359Z,101173.02
2019-05-25T09:29:09.542Z,101175.28
2019-05-25T09:31:38.285Z,101170.94
2019-05-25T09:34:06.957Z,101173.34
2019-05-25T09:36:35.621Z,101175.20
2019-05-25T09:39:05.937Z,101183.42
2019-05-25T09:41:34.615Z,101181.14
2019-05-25T09:44:03.387Z,101172.55
2019-05-25T09:46:32.129Z,101167.38
2019-05-25T09:49:00.817Z,101178.19
2019-05-25T09:51:29.565Z,101183.64
2019-05-25T09:53:58.311Z,101182.35
2019-05-25T09:56:27.043Z,101177.07
2019-05-25T09:58:55.827Z,101168.55
2019-05-25T10:01:24.580Z,101171.12
2019-05-25T10:03:56.492Z,101167.67
2019-05-25T10:06:23.813Z,101170.11
2019-05-25T10:08:52.654Z,101170.11
2019-05-25T10:11:21.290Z,101159.41
2019-05-25T10:13:50.052Z,101168.64
2019-05-25T10:16:18.884Z,101163.06
2019-05-25T10:18:47.615Z,101168.25
2019-05-25T10:21:16.398Z,101167.88
2019-05-25T10:23:45.051Z,101165.56
2019-05-25T10:26:13.777Z,101169.57
2019-05-25T10:28:43.189Z,101174.28
2019-05-25T10:31:11.944Z,101171.89
2019-05-25T10:33:40.734Z,101171.84
2019-05-25T10:36:09.412Z,101175.86
2019-05-25T10:38:38.206Z,101175.44
2019-05-25T10:41:06.974Z,101170.84
2019-05-25T10:43:37.282Z,101172.63
2019-05-25T10:46:06.043Z,101173.41
2019-05-25T10:48:34.774Z,101179.95
2019-05-25T10:51:03.502Z,101173.15
2019-05-25T10:53:32.198Z,101169.31
2019-05-25T10:56:00.913Z,101172.00
2019-05-25T10:58:30.184Z,101161.59
2019-05-25T11:00:58.918Z,101161.65
2019-05-25T11:03:27.635Z,101166.50
2019-05-25T11:05:56.379Z,101167.95
2019-05-25T11:08:25.104Z,101172.85
2019-05-25T11:10:53.817Z,101176.00
2019-05-25T11:13:22.476Z,101179.85
2019-05-25T11:15:51.259Z,101184.02
2019-05-25T11:18:20.070Z,101181.75
2019-05-25T11:20:48.736Z,101181.75
2019-05-25T11:23:17.619Z,101181.61
2019-05-25T11:25:46.481Z,101175.38
2019-05-25T11:28:15.274Z,101176.75
2019-05-25T11:30:43.930Z,101177.10
2019-05-25T11:33:12.700Z,101180.15
2019-05-25T11:35:41.372Z,101176.95
2019-05-25T11:38:10.223Z,101171.63
2019-05-25T11:40:38.961Z,101170.25
2019-05-25T11:43:07.688Z,101167.78
2019-05-25T11:45:36.386Z,101171.62
2019-05-25T11:48:06.314Z,101172.00
2019-05-25T11:50:35.100Z,101172.30
2019-05-25T11:53:05.867Z,101179.80
2019-05-25T11:55:34.355Z,101184.88
2019-05-25T11:58:03.151Z,101185.35
2019-05-25T12:00:32.001Z,101182.30
2019-05-25T12:03:00.782Z,101181.63
2019-05-25T12:05:29.448Z,101180.02
2019-05-25T12:07:58.137Z,101177.37
2019-05-25T12:10:28.251Z,101174.54
2019-05-25T12:12:56.988Z,101179.91
2019-05-25T12:15:25.650Z,101169.66
2019-05-25T12:17:54.363Z,101167.89
2019-05-25T12:20:23.132Z,101171.64
2019-05-25T12:22:51.920Z,101162.92
2019-05-25T12:25:20.766Z,101164.88
2019-05-25T12:27:49.899Z,101159.67
2019-05-25T12:30:20.068Z,101156.88
2019-05-25T12:32:48.812Z,101166.77
2019-05-25T12:35:19.258Z,101168.87
2019-05-25T12:37:47.999Z,101169.52
2019-05-25T12:40:16.965Z,101166.89
2019-05-25T12:42:46.060Z,101165.59
2019-05-25T12:45:16.031Z,101170.25
2019-05-25T12:47:44.811Z,101166.41
2019-05-25T12:50:14.201Z,101168.07
2019-05-25T12:52:42.866Z,101164.82
2019-05-25T12:55:11.995Z,101163.13
2019-05-25T12:57:40.744Z,101171.05
2019-05-25T13:00:15.864Z,101173.91
2019-05-25T13:02:40.333Z,101170.62
2019-05-25T13:05:09.255Z,101175.86
2019-05-25T13:07:38.006Z,101176.48
2019-05-25T13:10:08.202Z,101170.20
2019-05-25T13:12:36.937Z,101173.93
2019-05-25T13:15:08.969Z,101174.28
2019-05-25T13:17:37.684Z,101185.59
2019-05-25T13:20:07.076Z,101178.61
2019-05-25T13:22:35.807Z,101183.37
2019-05-25T13:25:08.081Z,101176.77
2019-05-25T13:27:36.850Z,101182.55
2019-05-25T13:30:10.441Z,101185.96
2019-05-25T13:32:39.117Z,101179.99
2019-05-25T13:35:09.009Z,101183.02
2019-05-25T13:37:37.805Z,101185.09
2019-05-25T13:40:07.382Z,101186.90
2019-05-25T13:42:36.064Z,101188.17
2019-05-25T13:45:09.619Z,101194.22
2019-05-25T13:47:38.300Z,101192.03
2019-05-25T13:50:10.964Z,101194.39
2019-05-25T13:52:39.658Z,101197.05
2019-05-25T13:55:08.641Z,101188.59
2019-05-25T13:57:37.350Z,101193.46
2019-05-25T14:00:08.171Z,101191.11
2019-05-25T14:02:36.895Z,101193.06
2019-05-25T14:05:07.385Z,101199.48
2019-05-25T14:07:36.193Z,101203.66
2019-05-25T14:10:07.595Z,101198.47
2019-05-25T14:12:36.305Z,101207.55
2019-05-25T14:15:06.850Z,101202.00
2019-05-25T14:17:35.621Z,101202.80
2019-05-25T14:20:06.521Z,101202.17
2019-05-25T14:22:35.350Z,101204.78
2019-05-25T14:25:05.748Z,101203.90
2019-05-25T14:27:34.492Z,101204.30
2019-05-25T14:30:03.752Z,101205.20
2019-05-25T14:32:32.427Z,101198.86
2019-05-25T14:35:01.221Z,101200.19
2019-05-25T14:37:29.911Z,101197.02
2019-05-25T14:39:58.663Z,101196.08
2019-05-25T14:42:27.415Z,101203.22
2019-05-25T14:44:56.081Z,101191.50
2019-05-25T14:47:25.100Z,101189.27
2019-05-25T14:49:53.907Z,101194.11
2019-05-25T14:52:22.658Z,101202.36
2019-05-25T14:54:51.439Z,101200.91
2019-05-25T14:57:20.198Z,101202.14
2019-05-25T14:59:48.892Z,101201.64
2019-05-25T15:02:17.681Z,101192.25
2019-05-25T15:04:46.534Z,101197.28
2019-05-25T15:07:15.299Z,101197.28
2019-05-25T15:09:43.990Z,101203.03
2019-05-25T15:12:12.737Z,101203.03
2019-05-25T15:14:41.408Z,101213.16
2019-05-25T15:17:10.181Z,101194.97
2019-05-25T15:19:38.914Z,101194.97
2019-05-25T15:22:07.890Z,101193.01
2019-05-25T15:24:36.603Z,101195.20
2019-05-25T15:27:05.381Z,101201.66
2019-05-25T15:29:34.079Z,101201.66
2019-05-25T15:32:18.828Z,101200.97
2019-05-25T15:34:33.152Z,101202.00
2019-05-25T15:37:01.833Z,101199.63
2019-05-25T15:39:30.617Z,101207.22
2019-05-25T15:41:59.379Z,101207.02
2019-05-25T15:44:29.916Z,101196.95
2019-05-25T15:46:58.577Z,101202.08
2019-05-25T15:49:33.172Z,101198.99
2019-05-25T15:51:57.735Z,101195.58
2019-05-25T15:54:26.456Z,101196.08
2019-05-25T15:56:55.216Z,101200.92
2019-05-25T15:59:23.996Z,101197.33
2019-05-25T16:01:52.686Z,101205.55
2019-05-25T16:04:21.372Z,101206.59
2019-05-25T16:06:50.441Z,101206.63
2019-05-25T16:09:19.160Z,101201.48
2019-05-25T16:11:47.882Z,101193.80
2019-05-25T16:14:16.576Z,101196.34
2019-05-25T16:16:45.267Z,101196.20
2019-05-25T16:19:13.989Z,101194.82
2019-05-25T16:21:42.760Z,101198.41
2019-05-25T16:24:11.433Z,101205.27
2019-05-25T16:26:46.179Z,101206.82
2019-05-25T16:29:10.624Z,101206.63
2019-05-25T16:31:39.463Z,101205.59
2019-05-25T16:34:08.217Z,101202.52
2019-05-25T16:36:36.953Z,101203.55
2019-05-25T16:39:08.180Z,101210.23
2019-05-25T16:41:36.888Z,101201.16
2019-05-25T16:44:05.695Z,101205.44
2019-05-25T16:46:34.412Z,101197.41
2019-05-25T16:49:03.197Z,101202.89
2019-05-25T16:51:31.896Z,101198.06
2019-05-25T16:54:00.591Z,101205.80
2019-05-25T16:56:29.343Z,101203.55
2019-05-25T16:58:58.116Z,101209.03
2019-05-25T17:01:26.786Z,101198.38
2019-05-25T17:03:55.566Z,101197.53
2019-05-25T17:06:24.269Z,101195.28
2019-05-25T17:08:56.235Z,101191.53
2019-05-25T17:11:23.430Z,101189.19
2019-05-25T17:13:52.126Z,101191.70
2019-05-25T17:16:20.792Z,101196.52
2019-05-25T17:18:49.604Z,101193.45
2019-05-25T17:21:18.341Z,101195.67
2019-05-25T17:23:47.032Z,101191.17
2019-05-25T17:26:15.772Z,101192.02
2019-05-25T17:28:44.556Z,101190.50
2019-05-25T17:31:13.253Z,101186.75
2019-05-25T17:33:45.835Z,101188.12
2019-05-25T17:36:13.248Z,101187.07
2019-05-25T17:38:42.051Z,101185.38
2019-05-25T17:41:10.826Z,101186.55
2019-05-25T17:43:40.423Z,101182.28
2019-05-25T17:46:09.159Z,101175.92
2019-05-25T17:48:37.839Z,101175.59
2019-05-25T17:51:06.597Z,101176.28
2019-05-25T17:53:35.307Z,101174.39
2019-05-25T17:56:04.160Z,101177.29
2019-05-25T17:58:32.881Z,101173.34
2019-05-25T18:01:01.638Z,101176.44
2019-05-25T18:03:35.175Z,101179.02
2019-05-25T18:06:04.233Z,101182.08
2019-05-25T18:08:32.963Z,101180.38
2019-05-25T18:11:01.752Z,101187.38
2019-05-25T18:13:30.505Z,101177.75
2019-05-25T18:15:59.165Z,101187.16
2019-05-25T18:18:27.872Z,101186.11
2019-05-25T18:20:56.611Z,101180.48
2019-05-25T18:23:25.304Z,101187.84
2019-05-25T18:25:54.059Z,101180.09
2019-05-25T18:28:22.746Z,101183.14
2019-05-25T18:30:51.504Z,101183.32
2019-05-25T18:33:20.215Z,101180.88
2019-05-25T18:35:48.856Z,101196.06
2019-05-25T18:38:17.654Z,101193.16
2019-05-25T18:40:46.380Z,101188.86
2019-05-25T18:43:15.050Z,101187.62
2019-05-25T18:45:43.758Z,101185.14
2019-05-25T18:48:12.506Z,101189.74
2019-05-25T18:50:41.196Z,101189.72
2019-05-25T18:53:09.984Z,101185.97
2019-05-25T18:55:38.718Z,101189.22
2019-05-25T18:58:07.475Z,101185.95
2019-05-25T19:00:36.272Z,101183.41
2019-05-25T19:03:05.123Z,101183.31
2019-05-25T19:05:33.796Z,101187.26
2019-05-25T19:08:02.616Z,101185.22
2019-05-25T19:10:31.376Z,101190.27
2019-05-25T19:13:00.081Z,101191.23
2019-05-25T19:15:28.740Z,101188.47
2019-05-25T19:17:57.446Z,101195.45
2019-05-25T19:20:26.148Z,101200.89
2019-05-25T19:22:55.101Z,101196.25
2019-05-25T19:25:23.847Z,101201.20
2019-05-25T19:27:52.570Z,101210.63
2019-05-25T19:30:21.551Z,101206.08
2019-05-25T19:32:50.286Z,101207.98
2019-05-25T19:35:19.428Z,101217.54
2019-05-25T19:37:48.103Z,101221.41
2019-05-25T19:40:21.968Z,101219.50
2019-05-25T19:42:50.789Z,101220.47
2019-05-25T19:45:19.969Z,101218.40
2019-05-25T19:47:48.717Z,101218.98
2019-05-25T19:50:17.734Z,101215.23
2019-05-25T19:52:46.428Z,101218.77
2019-05-25T19:55:15.338Z,101220.24
2019-05-25T19:57:45.343Z,101223.26
2019-05-25T20:00:16.088Z,101221.23
2019-05-25T20:02:44.750Z,101216.73
2019-05-25T20:05:16.735Z,101219.27
2019-05-25T20:07:44.309Z,101208.55
2019-05-25T20:10:13.550Z,101203.91
2019-05-25T20:12:42.167Z,101211.83
2019-05-25T20:15:11.878Z,101210.09
2019-05-25T20:17:40.544Z,101209.64
2019-05-25T20:20:09.999Z,101206.77
2019-05-25T20:22:38.759Z,101209.16
2019-05-25T20:25:08.271Z,101211.11
2019-05-25T20:27:36.946Z,101219.80
2019-05-25T20:30:09.270Z,101214.03
2019-05-25T20:32:37.933Z,101211.58
2019-05-25T20:35:08.617Z,101218.34
2019-05-25T20:37:37.299Z,101223.14
2019-05-25T20:40:10.083Z,101217.22
2019-05-25T20:42:39.129Z,101213.50
2019-05-25T20:45:08.808Z,101218.39
2019-05-25T20:47:37.944Z,101218.58
2019-05-25T20:50:08.169Z,101216.37
2019-05-25T20:52:36.982Z,101207.90
2019-05-25T20:55:08.075Z,101211.67
2019-05-25T20:57:36.776Z,101213.37
2019-05-25T21:00:09.553Z,101207.88
2019-05-25T21:02:45.254Z,101205.86
2019-05-25T21:05:14.913Z,101199.13
2019-05-25T21:07:44.629Z,101196.64
2019-05-25T21:10:14.975Z,101195.80
2019-05-25T21:12:44.823Z,101199.61
2019-05-25T21:15:13.758Z,101199.51
2019-05-25T21:17:42.406Z,101189.22
2019-05-25T21:20:11.329Z,101187.16
2019-05-25T21:22:40.022Z,101187.59
2019-05-25T21:25:09.004Z,101190.78
2019-05-25T21:27:37.793Z,101191.58
2019-05-25T21:30:07.941Z,101187.81
2019-05-25T21:32:36.606Z,101186.35
2019-05-25T21:35:06.458Z,101191.18
2019-05-25T21:37:35.205Z,101188.55
2019-05-25T21:40:07.064Z,101188.77
2019-05-25T21:42:35.826Z,101193.11
2019-05-25T21:45:06.286Z,101185.90
2019-05-25T21:47:35.020Z,101182.09
2019-05-25T21:50:04.549Z,101183.59
2019-05-25T21:52:33.317Z,101177.23
2019-05-25T21:55:02.127Z,101179.53
2019-05-25T21:57:31.090Z,101177.56
2019-05-25T21:59:59.761Z,101177.50
2019-05-25T22:02:28.450Z,101174.38
2019-05-25T22:04:57.246Z,101173.94
2019-05-25T22:07:25.908Z,101169.08
2019-05-25T22:09:54.585Z,101167.93
2019-05-25T22:12:23.268Z,101172.22
2019-05-25T22:14:51.984Z,101164.57
2019-05-25T22:17:20.654Z,101162.42
2019-05-25T22:19:49.326Z,101163.85
2019-05-25T22:22:18.103Z,101165.54
2019-05-25T22:24:46.783Z,101163.02
2019-05-25T22:27:15.453Z,101160.53
2019-05-25T22:29:44.210Z,101153.80
2019-05-25T22:32:12.913Z,101142.13
2019-05-25T22:34:41.641Z,101133.16
2019-05-25T22:37:10.315Z,101133.22
2019-05-25T22:39:39.021Z,101139.21
2019-05-25T22:42:07.686Z,101135.83
2019-05-25T22:44:36.423Z,101143.69
2019-05-25T22:47:05.097Z,101138.81
2019-05-25T22:49:33.800Z,101136.48
2019-05-25T22:52:02.625Z,101139.97
2019-05-25T22:54:31.290Z,101136.54
2019-05-25T22:57:00.002Z,101136.59
2019-05-25T22:59:28.664Z,101130.86
2019-05-25T23:01:57.395Z,101129.89
2019-05-25T23:04:26.090Z,101125.48
2019-05-25T23:06:58.267Z,101122.05
2019-05-25T23:09:25.801Z,101118.02
2019-05-25T23:11:54.564Z,101117.21
2019-05-25T23:14:23.234Z,101115.14
2019-05-25T23:16:51.997Z,101118.95
2019-05-25T23:19:20.680Z,101122.81
2019-05-25T23:21:49.434Z,101119.88
2019-05-25T23:24:18.178Z,101118.40
2019-05-25T23:26:46.874Z,101122.47
2019-05-25T23:29:15.614Z,101119.91
2019-05-25T23:31:44.346Z,101121.39
2019-05-25T23:34:13.072Z,101113.52
2019-05-25T23:36:41.826Z,101110.59
2019-05-25T23:39:10.482Z,101112.06
2019-05-25T23:41:39.270Z,101106.01
2019-05-25T23:44:07.954Z,101104.78
2019-05-25T23:46:36.727Z,101104.94
2019-05-25T23:49:05.430Z,101096.80
2019-05-25T23:51:34.124Z,101097.28
2019-05-25T23:54:02.856Z,101096.05
2019-05-25T23:56:31.802Z,101087.19
2019-05-25T23:59:00.955Z,101086.12
